sensor_id;sensor_type;location;lat;lon;timestamp;pressure;altitude;pressure_sealevel;temperature;humidity
76374;BME280;65197;50.164;8.012;2023-07-09T00:00:46;95841.50;;;20.44;56.25
76374;BME280;65197;50.164;8.012;2023-07-09T00:03:12;95838.22;;;20.42;56.17
76374;BME280;65197;50.164;8.012;2023-07-09T00:05:38;95850.72;;;20.37;57.21
76374;BME280;65197;50.164;8.012;2023-07-09T00:08:03;95852.72;;;20.33;57.01
76374;BME280;65197;50.164;8.012;2023-07-09T00:10:29;95848.88;;;20.27;58.28
76374;BME280;65197;50.164;8.012;2023-07-09T00:12:54;95848.19;;;20.25;58.39
76374;BME280;65197;50.164;8.012;2023-07-09T00:15:19;95846.53;;;20.24;58.32
76374;BME280;65197;50.164;8.012;2023-07-09T00:17:46;95845.41;;;20.17;60.04
76374;BME280;65197;50.164;8.012;2023-07-09T00:20:15;95851.22;;;20.30;58.25
76374;BME280;65197;50.164;8.012;2023-07-09T00:22:42;95859.19;;;20.39;59.25
76374;BME280;65197;50.164;8.012;2023-07-09T00:25:13;95857.53;;;20.38;60.14
76374;BME280;65197;50.164;8.012;2023-07-09T00:27:42;95849.66;;;20.39;59.43
76374;BME280;65197;50.164;8.012;2023-07-09T00:30:17;95863.16;;;20.43;60.93
76374;BME280;65197;50.164;8.012;2023-07-09T00:32:43;95853.50;;;20.45;59.90
76374;BME280;65197;50.164;8.012;2023-07-09T00:35:09;95847.03;;;20.50;60.34
76374;BME280;65197;50.164;8.012;2023-07-09T00:37:35;95849.75;;;20.49;60.67
76374;BME280;65197;50.164;8.012;2023-07-09T00:40:00;95866.03;;;20.40;62.88
76374;BME280;65197;50.164;8.012;2023-07-09T00:42:25;95863.22;;;20.31;64.30
76374;BME280;65197;50.164;8.012;2023-07-09T00:44:52;95872.16;;;20.39;63.60
76374;BME280;65197;50.164;8.012;2023-07-09T00:47:22;95857.28;;;20.41;63.57
76374;BME280;65197;50.164;8.012;2023-07-09T00:49:55;95872.59;;;20.44;62.65
76374;BME280;65197;50.164;8.012;2023-07-09T00:52:33;95852.19;;;20.29;63.75
76374;BME280;65197;50.164;8.012;2023-07-09T00:55:09;95858.03;;;20.31;64.16
76374;BME280;65197;50.164;8.012;2023-07-09T00:57:37;95873.34;;;20.34;65.12
76374;BME280;65197;50.164;8.012;2023-07-09T01:00:06;95865.38;;;20.26;64.88
76374;BME280;65197;50.164;8.012;2023-07-09T01:02:40;95868.19;;;20.23;64.72
76374;BME280;65197;50.164;8.012;2023-07-09T01:05:10;95874.56;;;20.19;64.67
76374;BME280;65197;50.164;8.012;2023-07-09T01:07:38;95857.41;;;20.18;63.57
76374;BME280;65197;50.164;8.012;2023-07-09T01:10:04;95848.94;;;20.16;65.10
76374;BME280;65197;50.164;8.012;2023-07-09T01:12:30;95873.00;;;20.28;64.15
76374;BME280;65197;50.164;8.012;2023-07-09T01:14:56;95872.69;;;20.21;66.75
76374;BME280;65197;50.164;8.012;2023-07-09T01:17:25;95860.13;;;20.17;66.14
76374;BME280;65197;50.164;8.012;2023-07-09T01:19:53;95873.38;;;20.23;64.78
76374;BME280;65197;50.164;8.012;2023-07-09T01:22:20;95868.00;;;20.15;67.55
76374;BME280;65197;50.164;8.012;2023-07-09T01:27:18;95873.44;;;20.12;67.27
76374;BME280;65197;50.164;8.012;2023-07-09T01:29:44;95856.56;;;19.97;68.05
76374;BME280;65197;50.164;8.012;2023-07-09T01:32:18;95869.69;;;20.05;67.21
76374;BME280;65197;50.164;8.012;2023-07-09T01:34:46;95868.78;;;20.06;66.73
76374;BME280;65197;50.164;8.012;2023-07-09T01:37:15;95853.72;;;20.00;66.71
76374;BME280;65197;50.164;8.012;2023-07-09T01:39:41;95860.78;;;19.98;67.20
76374;BME280;65197;50.164;8.012;2023-07-09T01:42:07;95868.78;;;19.95;67.63
76374;BME280;65197;50.164;8.012;2023-07-09T01:44:34;95865.53;;;19.93;67.01
76374;BME280;65197;50.164;8.012;2023-07-09T01:47:01;95852.13;;;19.88;67.19
76374;BME280;65197;50.164;8.012;2023-07-09T01:49:29;95855.53;;;19.88;67.38
76374;BME280;65197;50.164;8.012;2023-07-09T01:51:58;95864.34;;;19.97;67.08
76374;BME280;65197;50.164;8.012;2023-07-09T01:54:27;95872.53;;;20.02;66.96
76374;BME280;65197;50.164;8.012;2023-07-09T01:56:52;95861.75;;;19.97;67.19
76374;BME280;65197;50.164;8.012;2023-07-09T01:59:26;95867.59;;;19.99;66.50
76374;BME280;65197;50.164;8.012;2023-07-09T02:01:52;95865.97;;;19.98;65.99
76374;BME280;65197;50.164;8.012;2023-07-09T02:04:18;95873.00;;;19.96;66.13
76374;BME280;65197;50.164;8.012;2023-07-09T02:06:44;95871.63;;;19.92;66.51
76374;BME280;65197;50.164;8.012;2023-07-09T02:09:09;95874.34;;;19.90;67.18
76374;BME280;65197;50.164;8.012;2023-07-09T02:11:34;95871.88;;;19.89;67.60
76374;BME280;65197;50.164;8.012;2023-07-09T02:14:00;95860.72;;;19.88;68.23
76374;BME280;65197;50.164;8.012;2023-07-09T02:16:25;95848.38;;;19.80;68.33
76374;BME280;65197;50.164;8.012;2023-07-09T02:18:51;95857.78;;;19.81;69.19
76374;BME280;65197;50.164;8.012;2023-07-09T02:21:16;95873.38;;;19.91;69.86
76374;BME280;65197;50.164;8.012;2023-07-09T02:23:41;95864.22;;;19.87;69.89
76374;BME280;65197;50.164;8.012;2023-07-09T02:26:07;95856.81;;;19.82;70.78
76374;BME280;65197;50.164;8.012;2023-07-09T02:28:32;95857.91;;;19.80;71.07
76374;BME280;65197;50.164;8.012;2023-07-09T02:30:57;95848.16;;;19.72;71.90
76374;BME280;65197;50.164;8.012;2023-07-09T02:33:23;95858.72;;;19.80;71.90
76374;BME280;65197;50.164;8.012;2023-07-09T02:35:48;95870.47;;;19.84;71.65
76374;BME280;65197;50.164;8.012;2023-07-09T02:38:14;95871.66;;;19.80;72.67
76374;BME280;65197;50.164;8.012;2023-07-09T02:40:39;95869.06;;;19.80;73.10
76374;BME280;65197;50.164;8.012;2023-07-09T02:43:04;95872.34;;;19.82;72.62
76374;BME280;65197;50.164;8.012;2023-07-09T02:45:30;95877.53;;;19.82;73.16
76374;BME280;65197;50.164;8.012;2023-07-09T02:47:55;95878.00;;;19.88;71.88
76374;BME280;65197;50.164;8.012;2023-07-09T02:50:20;95887.50;;;19.98;70.31
76374;BME280;65197;50.164;8.012;2023-07-09T02:52:46;95866.06;;;19.96;69.91
76374;BME280;65197;50.164;8.012;2023-07-09T02:55:11;95886.19;;;20.04;70.28
76374;BME280;65197;50.164;8.012;2023-07-09T02:57:37;95877.22;;;20.08;69.60
76374;BME280;65197;50.164;8.012;2023-07-09T03:00:02;95887.34;;;20.11;69.21
76374;BME280;65197;50.164;8.012;2023-07-09T03:02:30;95880.41;;;20.12;69.01
76374;BME280;65197;50.164;8.012;2023-07-09T03:04:55;95873.22;;;20.04;69.30
76374;BME280;65197;50.164;8.012;2023-07-09T03:07:21;95882.84;;;20.13;69.33
76374;BME280;65197;50.164;8.012;2023-07-09T03:09:46;95888.03;;;20.13;69.80
76374;BME280;65197;50.164;8.012;2023-07-09T03:12:11;95892.25;;;20.14;69.14
76374;BME280;65197;50.164;8.012;2023-07-09T03:14:37;95895.78;;;20.13;69.81
76374;BME280;65197;50.164;8.012;2023-07-09T03:17:02;95886.38;;;20.12;69.46
76374;BME280;65197;50.164;8.012;2023-07-09T03:19:28;95896.00;;;20.21;69.63
76374;BME280;65197;50.164;8.012;2023-07-09T03:21:53;95889.63;;;20.25;69.58
76374;BME280;65197;50.164;8.012;2023-07-09T03:24:19;95885.47;;;20.34;69.45
76374;BME280;65197;50.164;8.012;2023-07-09T03:26:45;95882.13;;;20.43;68.82
76374;BME280;65197;50.164;8.012;2023-07-09T03:29:11;95881.91;;;20.67;68.35
76374;BME280;65197;50.164;8.012;2023-07-09T03:31:36;95885.56;;;20.65;68.67
76374;BME280;65197;50.164;8.012;2023-07-09T03:34:02;95898.16;;;20.69;68.62
76374;BME280;65197;50.164;8.012;2023-07-09T03:36:27;95889.88;;;20.75;68.47
76374;BME280;65197;50.164;8.012;2023-07-09T03:38:53;95895.06;;;20.75;69.29
76374;BME280;65197;50.164;8.012;2023-07-09T03:41:18;95893.59;;;20.82;68.78
76374;BME280;65197;50.164;8.012;2023-07-09T03:43:43;95879.13;;;20.80;68.96
76374;BME280;65197;50.164;8.012;2023-07-09T03:46:09;95890.66;;;20.97;68.16
76374;BME280;65197;50.164;8.012;2023-07-09T03:48:34;95889.06;;;21.05;68.35
76374;BME280;65197;50.164;8.012;2023-07-09T03:51:00;95888.25;;;21.05;68.59
76374;BME280;65197;50.164;8.012;2023-07-09T03:53:25;95898.00;;;21.13;68.07
76374;BME280;65197;50.164;8.012;2023-07-09T03:55:53;95907.13;;;21.17;68.39
76374;BME280;65197;50.164;8.012;2023-07-09T03:58:19;95881.97;;;21.07;68.41
76374;BME280;65197;50.164;8.012;2023-07-09T04:00:44;95917.56;;;21.26;67.90
76374;BME280;65197;50.164;8.012;2023-07-09T04:03:10;95905.91;;;21.42;66.76
76374;BME280;65197;50.164;8.012;2023-07-09T04:05:36;95907.88;;;21.49;66.24
76374;BME280;65197;50.164;8.012;2023-07-09T04:08:01;95905.13;;;21.51;66.08
76374;BME280;65197;50.164;8.012;2023-07-09T04:10:28;95911.97;;;21.52;66.10
76374;BME280;65197;50.164;8.012;2023-07-09T04:12:53;95908.97;;;21.56;65.55
76374;BME280;65197;50.164;8.012;2023-07-09T04:15:18;95922.94;;;21.65;65.05
76374;BME280;65197;50.164;8.012;2023-07-09T04:17:44;95922.69;;;21.68;64.73
76374;BME280;65197;50.164;8.012;2023-07-09T04:20:09;95919.69;;;21.73;64.86
76374;BME280;65197;50.164;8.012;2023-07-09T04:22:36;95909.69;;;21.68;64.64
76374;BME280;65197;50.164;8.012;2023-07-09T04:25:03;95904.94;;;21.73;63.73
76374;BME280;65197;50.164;8.012;2023-07-09T04:27:29;95919.72;;;21.92;63.21
76374;BME280;65197;50.164;8.012;2023-07-09T04:29:55;95918.09;;;22.01;62.59
76374;BME280;65197;50.164;8.012;2023-07-09T04:32:20;95915.41;;;22.12;61.72
76374;BME280;65197;50.164;8.012;2023-07-09T04:34:46;95922.13;;;22.24;61.69
76374;BME280;65197;50.164;8.012;2023-07-09T04:37:12;95924.72;;;22.34;60.91
76374;BME280;65197;50.164;8.012;2023-07-09T04:39:38;95929.66;;;22.47;60.71
76374;BME280;65197;50.164;8.012;2023-07-09T04:42:05;95919.66;;;22.52;59.99
76374;BME280;65197;50.164;8.012;2023-07-09T04:44:31;95914.03;;;22.56;59.89
76374;BME280;65197;50.164;8.012;2023-07-09T04:46:56;95924.13;;;22.69;58.85
76374;BME280;65197;50.164;8.012;2023-07-09T04:49:22;95913.19;;;22.75;58.24
76374;BME280;65197;50.164;8.012;2023-07-09T04:54:13;95926.19;;;22.95;57.76
76374;BME280;65197;50.164;8.012;2023-07-09T04:56:40;95913.00;;;23.06;56.02
76374;BME280;65197;50.164;8.012;2023-07-09T04:59:06;95919.44;;;23.11;56.46
76374;BME280;65197;50.164;8.012;2023-07-09T05:01:31;95907.94;;;23.14;56.33
76374;BME280;65197;50.164;8.012;2023-07-09T05:03:57;95905.28;;;23.24;54.67
76374;BME280;65197;50.164;8.012;2023-07-09T05:06:22;95904.19;;;23.26;54.70
76374;BME280;65197;50.164;8.012;2023-07-09T05:08:48;95907.41;;;23.38;53.29
76374;BME280;65197;50.164;8.012;2023-07-09T05:11:14;95913.28;;;23.50;53.48
76374;BME280;65197;50.164;8.012;2023-07-09T05:13:40;95917.34;;;23.62;52.58
76374;BME280;65197;50.164;8.012;2023-07-09T05:16:06;95909.78;;;23.69;52.09
76374;BME280;65197;50.164;8.012;2023-07-09T05:18:31;95911.25;;;23.81;51.69
76374;BME280;65197;50.164;8.012;2023-07-09T05:20:57;95910.56;;;23.97;51.00
76374;BME280;65197;50.164;8.012;2023-07-09T05:23:24;95902.03;;;24.04;50.47
76374;BME280;65197;50.164;8.012;2023-07-09T05:25:55;95906.88;;;24.17;49.88
76374;BME280;65197;50.164;8.012;2023-07-09T05:28:20;95907.19;;;24.32;49.44
76374;BME280;65197;50.164;8.012;2023-07-09T05:30:46;95892.88;;;24.36;49.54
76374;BME280;65197;50.164;8.012;2023-07-09T05:33:11;95914.72;;;24.53;48.91
76374;BME280;65197;50.164;8.012;2023-07-09T05:35:36;95891.56;;;24.50;49.03
76374;BME280;65197;50.164;8.012;2023-07-09T05:38:02;95899.34;;;24.68;49.19
76374;BME280;65197;50.164;8.012;2023-07-09T05:40:27;95889.53;;;24.61;48.50
76374;BME280;65197;50.164;8.012;2023-07-09T05:42:52;95900.75;;;24.80;48.25
76374;BME280;65197;50.164;8.012;2023-07-09T05:45:18;95908.16;;;24.93;49.34
76374;BME280;65197;50.164;8.012;2023-07-09T05:47:43;95907.91;;;25.04;49.18
76374;BME280;65197;50.164;8.012;2023-07-09T05:50:09;95917.81;;;25.18;47.99
76374;BME280;65197;50.164;8.012;2023-07-09T05:52:34;95909.72;;;25.29;48.00
76374;BME280;65197;50.164;8.012;2023-07-09T05:54:59;95918.41;;;25.38;47.22
76374;BME280;65197;50.164;8.012;2023-07-09T05:57:25;95914.06;;;25.55;47.11
76374;BME280;65197;50.164;8.012;2023-07-09T05:59:51;95905.06;;;25.49;47.23
76374;BME280;65197;50.164;8.012;2023-07-09T06:02:19;95921.72;;;25.82;50.50
76374;BME280;65197;50.164;8.012;2023-07-09T06:04:44;95917.19;;;26.01;46.27
76374;BME280;65197;50.164;8.012;2023-07-09T06:07:11;95924.72;;;26.04;46.26
76374;BME280;65197;50.164;8.012;2023-07-09T06:09:37;95921.50;;;26.34;44.93
76374;BME280;65197;50.164;8.012;2023-07-09T06:12:03;95921.06;;;26.63;44.67
76374;BME280;65197;50.164;8.012;2023-07-09T06:14:30;95920.56;;;26.84;43.97
76374;BME280;65197;50.164;8.012;2023-07-09T06:16:56;95923.84;;;27.11;43.08
76374;BME280;65197;50.164;8.012;2023-07-09T06:19:22;95924.97;;;27.64;42.01
76374;BME280;65197;50.164;8.012;2023-07-09T06:21:47;95926.25;;;27.84;41.20
76374;BME280;65197;50.164;8.012;2023-07-09T06:24:13;95914.75;;;27.94;40.51
76374;BME280;65197;50.164;8.012;2023-07-09T06:26:38;95910.53;;;28.15;40.08
76374;BME280;65197;50.164;8.012;2023-07-09T06:29:03;95933.75;;;28.18;39.82
76374;BME280;65197;50.164;8.012;2023-07-09T06:31:29;95920.81;;;28.17;39.69
76374;BME280;65197;50.164;8.012;2023-07-09T06:33:54;95923.56;;;28.92;38.54
76374;BME280;65197;50.164;8.012;2023-07-09T06:36:20;95911.75;;;28.97;38.37
76374;BME280;65197;50.164;8.012;2023-07-09T06:38:45;95925.63;;;28.82;37.09
76374;BME280;65197;50.164;8.012;2023-07-09T06:41:12;95934.03;;;29.01;37.22
76374;BME280;65197;50.164;8.012;2023-07-09T06:43:37;95929.50;;;29.09;37.03
76374;BME280;65197;50.164;8.012;2023-07-09T06:46:05;95932.06;;;29.03;36.93
76374;BME280;65197;50.164;8.012;2023-07-09T06:48:31;95925.56;;;29.58;37.29
76374;BME280;65197;50.164;8.012;2023-07-09T06:50:58;95933.19;;;29.82;35.90
76374;BME280;65197;50.164;8.012;2023-07-09T06:53:24;95931.66;;;29.58;35.98
76374;BME280;65197;50.164;8.012;2023-07-09T06:55:50;95919.38;;;29.51;36.34
76374;BME280;65197;50.164;8.012;2023-07-09T06:58:18;95933.19;;;29.82;35.54
76374;BME280;65197;50.164;8.012;2023-07-09T07:00:43;95934.66;;;30.06;35.26
76374;BME280;65197;50.164;8.012;2023-07-09T07:03:09;95929.72;;;30.33;34.58
76374;BME280;65197;50.164;8.012;2023-07-09T07:05:35;95929.78;;;30.39;34.85
76374;BME280;65197;50.164;8.012;2023-07-09T07:08:01;95923.66;;;30.32;34.79
76374;BME280;65197;50.164;8.012;2023-07-09T07:10:28;95920.25;;;30.60;33.98
76374;BME280;65197;50.164;8.012;2023-07-09T07:12:53;95930.00;;;30.81;33.97
76374;BME280;65197;50.164;8.012;2023-07-09T07:15:19;95925.44;;;31.24;33.68
76374;BME280;65197;50.164;8.012;2023-07-09T07:17:45;95929.13;;;31.58;32.43
76374;BME280;65197;50.164;8.012;2023-07-09T07:20:12;95920.59;;;31.56;32.01
76374;BME280;65197;50.164;8.012;2023-07-09T07:22:38;95919.56;;;31.22;32.65
76374;BME280;65197;50.164;8.012;2023-07-09T07:25:05;95917.50;;;31.46;32.92
76374;BME280;65197;50.164;8.012;2023-07-09T07:27:31;95914.06;;;31.86;32.55
76374;BME280;65197;50.164;8.012;2023-07-09T07:29:56;95911.81;;;31.83;32.62
76374;BME280;65197;50.164;8.012;2023-07-09T07:32:23;95916.91;;;31.50;31.30
76374;BME280;65197;50.164;8.012;2023-07-09T07:34:48;95904.25;;;32.28;30.69
76374;BME280;65197;50.164;8.012;2023-07-09T07:37:14;95917.22;;;32.23;31.63
76374;BME280;65197;50.164;8.012;2023-07-09T07:39:39;95918.13;;;32.57;31.15
76374;BME280;65197;50.164;8.012;2023-07-09T07:42:05;95919.63;;;32.11;31.06
76374;BME280;65197;50.164;8.012;2023-07-09T07:44:30;95917.31;;;32.89;31.35
76374;BME280;65197;50.164;8.012;2023-07-09T07:46:55;95926.69;;;32.99;29.81
76374;BME280;65197;50.164;8.012;2023-07-09T07:49:21;95903.91;;;33.24;29.63
76374;BME280;65197;50.164;8.012;2023-07-09T07:51:47;95933.16;;;33.42;30.69
76374;BME280;65197;50.164;8.012;2023-07-09T07:54:13;95921.78;;;32.89;30.88
76374;BME280;65197;50.164;8.012;2023-07-09T07:56:38;95914.09;;;32.94;30.62
76374;BME280;65197;50.164;8.012;2023-07-09T07:59:04;95913.69;;;32.77;31.98
76374;BME280;65197;50.164;8.012;2023-07-09T08:01:29;95923.81;;;33.33;30.36
76374;BME280;65197;50.164;8.012;2023-07-09T08:04:02;95919.78;;;33.24;30.54
76374;BME280;65197;50.164;8.012;2023-07-09T08:06:27;95914.91;;;33.08;30.33
76374;BME280;65197;50.164;8.012;2023-07-09T08:08:53;95923.66;;;33.15;30.66
76374;BME280;65197;50.164;8.012;2023-07-09T08:11:18;95916.31;;;33.17;30.48
76374;BME280;65197;50.164;8.012;2023-07-09T08:13:44;95914.47;;;33.31;28.63
76374;BME280;65197;50.164;8.012;2023-07-09T08:16:09;95923.63;;;32.95;29.88
76374;BME280;65197;50.164;8.012;2023-07-09T08:18:37;95922.59;;;32.76;30.95
76374;BME280;65197;50.164;8.012;2023-07-09T08:21:03;95923.03;;;32.73;30.18
76374;BME280;65197;50.164;8.012;2023-07-09T08:23:28;95925.88;;;33.25;29.70
76374;BME280;65197;50.164;8.012;2023-07-09T08:25:56;95912.84;;;33.30;31.00
76374;BME280;65197;50.164;8.012;2023-07-09T08:28:21;95919.06;;;33.75;30.28
76374;BME280;65197;50.164;8.012;2023-07-09T08:30:47;95915.53;;;33.88;29.32
76374;BME280;65197;50.164;8.012;2023-07-09T08:33:13;95916.84;;;33.59;28.88
76374;BME280;65197;50.164;8.012;2023-07-09T08:35:38;95911.53;;;33.72;29.17
76374;BME280;65197;50.164;8.012;2023-07-09T08:38:04;95911.22;;;32.56;29.19
76374;BME280;65197;50.164;8.012;2023-07-09T08:40:29;95913.88;;;32.89;30.46
76374;BME280;65197;50.164;8.012;2023-07-09T08:43:02;95909.31;;;33.62;28.72
76374;BME280;65197;50.164;8.012;2023-07-09T08:45:56;95913.44;;;33.18;29.10
76374;BME280;65197;50.164;8.012;2023-07-09T08:48:34;95914.06;;;32.61;28.50
76374;BME280;65197;50.164;8.012;2023-07-09T08:51:10;95919.72;;;32.44;29.84
76374;BME280;65197;50.164;8.012;2023-07-09T08:53:51;95910.38;;;32.49;28.94
76374;BME280;65197;50.164;8.012;2023-07-09T08:56:19;95916.94;;;33.06;30.73
76374;BME280;65197;50.164;8.012;2023-07-09T08:58:48;95908.00;;;32.87;29.59
76374;BME280;65197;50.164;8.012;2023-07-09T09:01:51;95919.75;;;32.58;28.91
76374;BME280;65197;50.164;8.012;2023-07-09T09:04:29;95909.59;;;32.81;29.30
76374;BME280;65197;50.164;8.012;2023-07-09T09:07:12;95912.44;;;32.80;29.91
76374;BME280;65197;50.164;8.012;2023-07-09T09:09:50;95907.56;;;32.83;30.61
76374;BME280;65197;50.164;8.012;2023-07-09T09:12:24;95920.81;;;33.88;29.03
76374;BME280;65197;50.164;8.012;2023-07-09T09:14:58;95890.69;;;33.95;27.14
76374;BME280;65197;50.164;8.012;2023-07-09T09:17:25;95919.59;;;33.90;27.43
76374;BME280;65197;50.164;8.012;2023-07-09T09:19:59;95923.84;;;33.20;28.93
76374;BME280;65197;50.164;8.012;2023-07-09T09:22:30;95923.31;;;33.76;27.84
76374;BME280;65197;50.164;8.012;2023-07-09T09:27:41;95927.97;;;34.32;27.55
76374;BME280;65197;50.164;8.012;2023-07-09T09:30:18;95912.66;;;34.03;26.91
76374;BME280;65197;50.164;8.012;2023-07-09T09:32:47;95915.97;;;33.85;27.28
76374;BME280;65197;50.164;8.012;2023-07-09T09:35:16;95907.34;;;33.31;28.44
76374;BME280;65197;50.164;8.012;2023-07-09T09:37:50;95903.91;;;32.84;28.66
76374;BME280;65197;50.164;8.012;2023-07-09T09:40:18;95911.47;;;33.85;28.43
76374;BME280;65197;50.164;8.012;2023-07-09T09:42:48;95921.66;;;33.82;27.23
76374;BME280;65197;50.164;8.012;2023-07-09T09:45:35;95921.75;;;34.52;28.26
76374;BME280;65197;50.164;8.012;2023-07-09T09:48:17;95922.16;;;34.17;27.96
76374;BME280;65197;50.164;8.012;2023-07-09T09:50:45;95938.81;;;34.62;26.59
76374;BME280;65197;50.164;8.012;2023-07-09T09:53:18;95916.78;;;33.85;28.83
76374;BME280;65197;50.164;8.012;2023-07-09T09:55:45;95940.34;;;34.00;28.00
76374;BME280;65197;50.164;8.012;2023-07-09T09:58:13;95922.38;;;34.79;28.68
76374;BME280;65197;50.164;8.012;2023-07-09T10:00:39;95926.09;;;34.39;27.95
76374;BME280;65197;50.164;8.012;2023-07-09T10:03:05;95919.34;;;34.12;26.35
76374;BME280;65197;50.164;8.012;2023-07-09T10:05:38;95919.06;;;34.20;28.54
76374;BME280;65197;50.164;8.012;2023-07-09T10:08:10;95911.38;;;34.12;27.46
76374;BME280;65197;50.164;8.012;2023-07-09T10:10:39;95922.19;;;34.49;28.24
76374;BME280;65197;50.164;8.012;2023-07-09T10:15:43;95910.34;;;33.55;29.27
76374;BME280;65197;50.164;8.012;2023-07-09T10:20:51;95915.53;;;33.88;28.92
76374;BME280;65197;50.164;8.012;2023-07-09T10:23:29;95908.22;;;33.83;28.41
76374;BME280;65197;50.164;8.012;2023-07-09T10:31:08;95912.66;;;34.03;29.03
76374;BME280;65197;50.164;8.012;2023-07-09T10:39:38;95899.69;;;33.81;28.25
76374;BME280;65197;50.164;8.012;2023-07-09T10:42:12;95895.88;;;34.15;28.38
76374;BME280;65197;50.164;8.012;2023-07-09T10:44:41;95901.53;;;33.74;27.73
76374;BME280;65197;50.164;8.012;2023-07-09T10:47:25;95906.06;;;33.67;27.64
76374;BME280;65197;50.164;8.012;2023-07-09T10:49:51;95895.69;;;33.59;28.64
76374;BME280;65197;50.164;8.012;2023-07-09T10:52:32;95902.44;;;34.44;26.65
76374;BME280;65197;50.164;8.012;2023-07-09T10:57:31;95910.59;;;34.75;27.33
76374;BME280;65197;50.164;8.012;2023-07-09T11:00:01;95899.28;;;34.61;26.20
76374;BME280;65197;50.164;8.012;2023-07-09T11:02:30;95900.72;;;33.80;27.49
76374;BME280;65197;50.164;8.012;2023-07-09T11:04:59;95898.50;;;34.22;26.84
76374;BME280;65197;50.164;8.012;2023-07-09T11:07:33;95904.00;;;34.59;27.65
76374;BME280;65197;50.164;8.012;2023-07-09T11:10:04;95881.50;;;34.68;27.84
76374;BME280;65197;50.164;8.012;2023-07-09T11:12:40;95893.13;;;33.97;26.65
76374;BME280;65197;50.164;8.012;2023-07-09T11:15:19;95893.53;;;33.87;26.87
76374;BME280;65197;50.164;8.012;2023-07-09T11:17:47;95888.25;;;33.87;26.72
76374;BME280;65197;50.164;8.012;2023-07-09T11:20:19;95900.06;;;34.68;26.07
76374;BME280;65197;50.164;8.012;2023-07-09T11:22:52;95882.78;;;34.59;27.06
76374;BME280;65197;50.164;8.012;2023-07-09T11:28:08;95886.66;;;34.25;27.06
76374;BME280;65197;50.164;8.012;2023-07-09T11:30:48;95887.41;;;34.00;27.73
76374;BME280;65197;50.164;8.012;2023-07-09T11:33:18;95888.13;;;33.69;27.88
76374;BME280;65197;50.164;8.012;2023-07-09T11:35:52;95888.06;;;34.27;27.27
76374;BME280;65197;50.164;8.012;2023-07-09T11:38:21;95888.06;;;33.89;27.13
76374;BME280;65197;50.164;8.012;2023-07-09T11:40:48;95877.06;;;34.30;27.47
76374;BME280;65197;50.164;8.012;2023-07-09T11:43:28;95874.97;;;33.56;28.38
76374;BME280;65197;50.164;8.012;2023-07-09T11:45:58;95869.78;;;33.74;27.15
76374;BME280;65197;50.164;8.012;2023-07-09T11:48:29;95879.81;;;33.65;27.28
76374;BME280;65197;50.164;8.012;2023-07-09T11:51:09;95888.69;;;33.84;28.62
76374;BME280;65197;50.164;8.012;2023-07-09T11:53:43;95897.38;;;33.27;27.71
76374;BME280;65197;50.164;8.012;2023-07-09T11:56:10;95884.22;;;33.85;27.64
76374;BME280;65197;50.164;8.012;2023-07-09T11:58:35;95874.66;;;34.22;27.77
76374;BME280;65197;50.164;8.012;2023-07-09T12:01:01;95882.69;;;34.09;28.37
76374;BME280;65197;50.164;8.012;2023-07-09T12:03:33;95875.00;;;34.32;26.71
76374;BME280;65197;50.164;8.012;2023-07-09T12:06:02;95881.16;;;34.26;28.04
76374;BME280;65197;50.164;8.012;2023-07-09T12:08:37;95858.13;;;33.95;28.78
76374;BME280;65197;50.164;8.012;2023-07-09T12:11:04;95877.81;;;33.54;27.76
76374;BME280;65197;50.164;8.012;2023-07-09T12:13:39;95862.31;;;33.64;26.13
76374;BME280;65197;50.164;8.012;2023-07-09T12:16:19;95863.44;;;33.88;25.25
76374;BME280;65197;50.164;8.012;2023-07-09T12:18:45;95855.50;;;34.27;26.10
76374;BME280;65197;50.164;8.012;2023-07-09T12:21:11;95856.50;;;33.87;27.91
76374;BME280;65197;50.164;8.012;2023-07-09T12:23:39;95853.03;;;33.87;26.92
76374;BME280;65197;50.164;8.012;2023-07-09T12:26:05;95847.84;;;34.12;27.38
76374;BME280;65197;50.164;8.012;2023-07-09T12:28:31;95841.69;;;34.18;24.48
76374;BME280;65197;50.164;8.012;2023-07-09T12:30:57;95831.13;;;34.50;25.30
76374;BME280;65197;50.164;8.012;2023-07-09T12:33:25;95833.16;;;35.16;25.70
76374;BME280;65197;50.164;8.012;2023-07-09T12:36:04;95823.53;;;33.90;26.74
76374;BME280;65197;50.164;8.012;2023-07-09T12:38:38;95840.78;;;33.61;27.89
76374;BME280;65197;50.164;8.012;2023-07-09T12:41:05;95835.50;;;33.99;26.51
76374;BME280;65197;50.164;8.012;2023-07-09T12:43:34;95813.63;;;34.17;26.52
76374;BME280;65197;50.164;8.012;2023-07-09T12:46:00;95822.38;;;34.11;26.68
76374;BME280;65197;50.164;8.012;2023-07-09T12:48:28;95826.84;;;34.49;25.85
76374;BME280;65197;50.164;8.012;2023-07-09T12:50:58;95822.53;;;34.98;26.02
76374;BME280;65197;50.164;8.012;2023-07-09T12:53:26;95812.38;;;35.13;24.18
76374;BME280;65197;50.164;8.012;2023-07-09T12:55:55;95814.97;;;34.58;24.38
76374;BME280;65197;50.164;8.012;2023-07-09T12:58:30;95818.63;;;33.93;24.87
76374;BME280;65197;50.164;8.012;2023-07-09T13:00:56;95819.56;;;34.37;25.83
76374;BME280;65197;50.164;8.012;2023-07-09T13:03:28;95820.16;;;34.39;24.79
76374;BME280;65197;50.164;8.012;2023-07-09T13:05:56;95812.13;;;34.53;25.34
76374;BME280;65197;50.164;8.012;2023-07-09T13:08:27;95804.03;;;34.48;25.25
76374;BME280;65197;50.164;8.012;2023-07-09T13:10:53;95796.84;;;34.55;25.46
76374;BME280;65197;50.164;8.012;2023-07-09T13:13:20;95794.09;;;34.11;25.32
76374;BME280;65197;50.164;8.012;2023-07-09T13:15:56;95802.75;;;33.93;26.07
76374;BME280;65197;50.164;8.012;2023-07-09T13:18:23;95802.78;;;33.87;26.25
76374;BME280;65197;50.164;8.012;2023-07-09T13:20:49;95797.34;;;34.13;25.32
76374;BME280;65197;50.164;8.012;2023-07-09T13:23:26;95797.53;;;33.80;25.64
76374;BME280;65197;50.164;8.012;2023-07-09T13:25:53;95794.78;;;34.57;25.31
76374;BME280;65197;50.164;8.012;2023-07-09T13:28:27;95791.50;;;33.60;24.46
76374;BME280;65197;50.164;8.012;2023-07-09T13:30:57;95791.50;;;33.60;24.95
76374;BME280;65197;50.164;8.012;2023-07-09T13:33:23;95800.81;;;33.69;25.99